sensor_id;sensor_type;location;lat;lon;timestamp;temperature;humidity
13426;DHT22;6785;57.918;12.530;2024-02-26T00:01:05;3.20;99.90
13426;DHT22;6785;57.918;12.530;2024-02-26T00:03:33;3.20;99.90
13426;DHT22;6785;57.918;12.530;2024-02-26T00:06:01;3.10;99.90
13426;DHT22;6785;57.918;12.530;2024-02-26T00:08:29;3.10;99.90
13426;DHT22;6785;57.918;12.530;2024-02-26T00:10:55;3.10;99.90
13426;DHT22;6785;57.918;12.530;2024-02-26T00:13:22;3.20;99.90
13426;DHT22;6785;57.918;12.530;2024-02-26T00:15:49;3.20;99.90
13426;DHT22;6785;57.918;12.530;2024-02-26T00:18:16;3.20;99.90
13426;DHT22;6785;57.918;12.530;2024-02-26T00:20:44;3.30;99.90
13426;DHT22;6785;57.918;12.530;2024-02-26T00:23:11;3.30;99.90
13426;DHT22;6785;57.918;12.530;2024-02-26T00:25:37;3.40;99.90
13426;DHT22;6785;57.918;12.530;2024-02-26T00:28:05;3.40;99.90
13426;DHT22;6785;57.918;12.530;2024-02-26T00:30:31;3.40;99.90
13426;DHT22;6785;57.918;12.530;2024-02-26T00:32:58;3.40;99.90
13426;DHT22;6785;57.918;12.530;2024-02-26T00:35:25;3.40;99.90
13426;DHT22;6785;57.918;12.530;2024-02-26T00:37:53;3.40;99.90
13426;DHT22;6785;57.918;12.530;2024-02-26T00:40:20;3.40;99.90
13426;DHT22;6785;57.918;12.530;2024-02-26T00:42:47;3.40;99.90
13426;DHT22;6785;57.918;12.530;2024-02-26T00:45:14;3.30;99.90
13426;DHT22;6785;57.918;12.530;2024-02-26T00:47:42;3.40;99.90
13426;DHT22;6785;57.918;12.530;2024-02-26T00:50:11;3.40;99.90
13426;DHT22;6785;57.918;12.530;2024-02-26T00:52:37;3.30;99.90
13426;DHT22;6785;57.918;12.530;2024-02-26T00:55:07;3.30;99.90
13426;DHT22;6785;57.918;12.530;2024-02-26T00:57:34;3.30;99.90
13426;DHT22;6785;57.918;12.530;2024-02-26T01:00:01;3.30;99.90
13426;DHT22;6785;57.918;12.530;2024-02-26T01:02:27;3.30;99.90
13426;DHT22;6785;57.918;12.530;2024-02-26T01:04:54;3.30;99.90
13426;DHT22;6785;57.918;12.530;2024-02-26T01:07:21;3.30;99.90
13426;DHT22;6785;57.918;12.530;2024-02-26T01:09:48;3.30;99.90
13426;DHT22;6785;57.918;12.530;2024-02-26T01:12:16;3.20;99.90
13426;DHT22;6785;57.918;12.530;2024-02-26T01:14:43;3.20;99.90
13426;DHT22;6785;57.918;12.530;2024-02-26T01:17:09;3.20;99.90
13426;DHT22;6785;57.918;12.530;2024-02-26T01:19:36;3.20;99.90
13426;DHT22;6785;57.918;12.530;2024-02-26T01:22:03;3.10;99.90
13426;DHT22;6785;57.918;12.530;2024-02-26T01:24:30;3.20;99.90
13426;DHT22;6785;57.918;12.530;2024-02-26T01:26:56;3.20;99.90
13426;DHT22;6785;57.918;12.530;2024-02-26T01:29:25;3.20;99.90
13426;DHT22;6785;57.918;12.530;2024-02-26T01:31:51;3.20;99.90
13426;DHT22;6785;57.918;12.530;2024-02-26T01:34:18;3.10;99.90
13426;DHT22;6785;57.918;12.530;2024-02-26T01:36:45;3.10;99.90
13426;DHT22;6785;57.918;12.530;2024-02-26T01:39:12;3.10;99.90
13426;DHT22;6785;57.918;12.530;2024-02-26T01:41:39;3.10;99.90
13426;DHT22;6785;57.918;12.530;2024-02-26T01:44:07;3.10;99.90
13426;DHT22;6785;57.918;12.530;2024-02-26T01:46:35;3.10;99.90
13426;DHT22;6785;57.918;12.530;2024-02-26T01:49:03;3.10;99.90
13426;DHT22;6785;57.918;12.530;2024-02-26T01:51:31;3.10;99.90
13426;DHT22;6785;57.918;12.530;2024-02-26T01:54:00;3.10;99.90
13426;DHT22;6785;57.918;12.530;2024-02-26T01:56:28;3.10;99.90
13426;DHT22;6785;57.918;12.530;2024-02-26T01:58:57;3.10;99.90
13426;DHT22;6785;57.918;12.530;2024-02-26T02:01:25;3.10;99.90
13426;DHT22;6785;57.918;12.530;2024-02-26T02:03:59;3.10;99.90
13426;DHT22;6785;57.918;12.530;2024-02-26T02:06:26;3.10;99.90
13426;DHT22;6785;57.918;12.530;2024-02-26T02:08:54;3.10;99.90
13426;DHT22;6785;57.918;12.530;2024-02-26T02:11:21;3.10;99.90
13426;DHT22;6785;57.918;12.530;2024-02-26T02:13:48;3.00;99.90
13426;DHT22;6785;57.918;12.530;2024-02-26T02:16:15;2.90;99.90
13426;DHT22;6785;57.918;12.530;2024-02-26T02:18:42;2.90;99.90
13426;DHT22;6785;57.918;12.530;2024-02-26T02:21:10;2.80;99.90
13426;DHT22;6785;57.918;12.530;2024-02-26T02:23:37;2.70;99.90
13426;DHT22;6785;57.918;12.530;2024-02-26T02:26:04;2.70;99.90
13426;DHT22;6785;57.918;12.530;2024-02-26T02:28:31;2.60;99.90
13426;DHT22;6785;57.918;12.530;2024-02-26T02:30:58;2.60;99.90
13426;DHT22;6785;57.918;12.530;2024-02-26T02:33:26;2.60;99.90
13426;DHT22;6785;57.918;12.530;2024-02-26T02:35:53;2.60;99.90
13426;DHT22;6785;57.918;12.530;2024-02-26T02:38:22;2.50;99.90
13426;DHT22;6785;57.918;12.530;2024-02-26T02:40:51;2.50;99.90
13426;DHT22;6785;57.918;12.530;2024-02-26T02:43:18;2.40;99.90
13426;DHT22;6785;57.918;12.530;2024-02-26T02:45:45;2.40;99.90
13426;DHT22;6785;57.918;12.530;2024-02-26T02:48:11;2.40;99.90
13426;DHT22;6785;57.918;12.530;2024-02-26T02:50:38;2.40;99.90
13426;DHT22;6785;57.918;12.530;2024-02-26T02:53:05;2.50;99.90
13426;DHT22;6785;57.918;12.530;2024-02-26T02:55:33;2.60;99.90
13426;DHT22;6785;57.918;12.530;2024-02-26T02:58:00;2.60;99.90
13426;DHT22;6785;57.918;12.530;2024-02-26T03:00:27;2.60;99.90
13426;DHT22;6785;57.918;12.530;2024-02-26T03:02:54;2.70;99.90
13426;DHT22;6785;57.918;12.530;2024-02-26T03:05:20;2.70;99.90
13426;DHT22;6785;57.918;12.530;2024-02-26T03:07:47;2.70;99.90
13426;DHT22;6785;57.918;12.530;2024-02-26T03:10:14;2.70;99.90
13426;DHT22;6785;57.918;12.530;2024-02-26T03:12:42;2.70;99.90
13426;DHT22;6785;57.918;12.530;2024-02-26T03:15:10;2.70;99.90
13426;DHT22;6785;57.918;12.530;2024-02-26T03:17:37;2.80;99.90
13426;DHT22;6785;57.918;12.530;2024-02-26T03:20:05;2.80;99.90
13426;DHT22;6785;57.918;12.530;2024-02-26T03:22:34;2.80;99.90
13426;DHT22;6785;57.918;12.530;2024-02-26T03:25:00;2.90;99.90
13426;DHT22;6785;57.918;12.530;2024-02-26T03:27:27;2.90;99.90
13426;DHT22;6785;57.918;12.530;2024-02-26T03:29:56;2.90;99.90
13426;DHT22;6785;57.918;12.530;2024-02-26T03:32:22;3.00;99.90
13426;DHT22;6785;57.918;12.530;2024-02-26T03:34:49;3.10;99.90
13426;DHT22;6785;57.918;12.530;2024-02-26T03:37:19;3.00;99.90
13426;DHT22;6785;57.918;12.530;2024-02-26T03:39:46;3.10;99.90
13426;DHT22;6785;57.918;12.530;2024-02-26T03:42:12;3.10;99.90
13426;DHT22;6785;57.918;12.530;2024-02-26T03:44:39;3.00;99.90
13426;DHT22;6785;57.918;12.530;2024-02-26T03:47:07;3.00;99.90
13426;DHT22;6785;57.918;12.530;2024-02-26T03:49:34;3.00;99.90
13426;DHT22;6785;57.918;12.530;2024-02-26T03:52:00;3.00;99.90
13426;DHT22;6785;57.918;12.530;2024-02-26T03:54:27;3.00;99.90
13426;DHT22;6785;57.918;12.530;2024-02-26T03:56:54;3.00;99.90
13426;DHT22;6785;57.918;12.530;2024-02-26T03:59:20;3.00;99.90
13426;DHT22;6785;57.918;12.530;2024-02-26T04:01:49;3.00;99.90
13426;DHT22;6785;57.918;12.530;2024-02-26T04:04:17;3.10;99.90
13426;DHT22;6785;57.918;12.530;2024-02-26T04:06:44;3.10;99.90
13426;DHT22;6785;57.918;12.530;2024-02-26T04:09:13;3.00;99.90
13426;DHT22;6785;57.918;12.530;2024-02-26T04:11:40;3.00;99.90
13426;DHT22;6785;57.918;12.530;2024-02-26T04:14:08;2.90;99.90
13426;DHT22;6785;57.918;12.530;2024-02-26T04:16:37;2.90;99.90
13426;DHT22;6785;57.918;12.530;2024-02-26T04:19:04;3.00;99.90
13426;DHT22;6785;57.918;12.530;2024-02-26T04:21:32;3.00;99.90
13426;DHT22;6785;57.918;12.530;2024-02-26T04:23:59;2.90;99.90
13426;DHT22;6785;57.918;12.530;2024-02-26T04:26:27;2.90;99.90
13426;DHT22;6785;57.918;12.530;2024-02-26T04:28:54;2.90;99.90
13426;DHT22;6785;57.918;12.530;2024-02-26T04:31:21;2.80;99.90
13426;DHT22;6785;57.918;12.530;2024-02-26T04:33:48;2.90;99.90
13426;DHT22;6785;57.918;12.530;2024-02-26T04:36:15;2.90;99.90
13426;DHT22;6785;57.918;12.530;2024-02-26T04:38:44;3.00;99.90
13426;DHT22;6785;57.918;12.530;2024-02-26T04:41:11;3.00;99.90
13426;DHT22;6785;57.918;12.530;2024-02-26T04:43:38;3.10;99.90
13426;DHT22;6785;57.918;12.530;2024-02-26T04:46:07;3.00;99.90
13426;DHT22;6785;57.918;12.530;2024-02-26T04:48:34;3.00;99.90
13426;DHT22;6785;57.918;12.530;2024-02-26T04:51:01;3.00;99.90
13426;DHT22;6785;57.918;12.530;2024-02-26T04:53:28;3.10;99.90
13426;DHT22;6785;57.918;12.530;2024-02-26T04:55:56;3.00;99.90
13426;DHT22;6785;57.918;12.530;2024-02-26T04:58:23;3.00;99.90
13426;DHT22;6785;57.918;12.530;2024-02-26T05:00:50;3.00;99.90
13426;DHT22;6785;57.918;12.530;2024-02-26T05:03:17;2.90;99.90
13426;DHT22;6785;57.918;12.530;2024-02-26T05:05:44;3.00;99.90
13426;DHT22;6785;57.918;12.530;2024-02-26T05:08:11;3.00;99.90
13426;DHT22;6785;57.918;12.530;2024-02-26T05:10:38;3.00;99.90
13426;DHT22;6785;57.918;12.530;2024-02-26T05:13:08;3.00;99.90
13426;DHT22;6785;57.918;12.530;2024-02-26T05:15:34;3.00;99.90
13426;DHT22;6785;57.918;12.530;2024-02-26T05:18:01;3.00;99.90
13426;DHT22;6785;57.918;12.530;2024-02-26T05:20:28;3.00;99.90
13426;DHT22;6785;57.918;12.530;2024-02-26T05:22:55;2.90;99.90
13426;DHT22;6785;57.918;12.530;2024-02-26T05:25:24;2.90;99.90
13426;DHT22;6785;57.918;12.530;2024-02-26T05:27:51;2.90;99.90
13426;DHT22;6785;57.918;12.530;2024-02-26T05:30:20;2.90;99.90
13426;DHT22;6785;57.918;12.530;2024-02-26T05:32:47;2.80;99.90
13426;DHT22;6785;57.918;12.530;2024-02-26T05:35:14;2.80;99.90
13426;DHT22;6785;57.918;12.530;2024-02-26T05:37:40;2.90;99.90
13426;DHT22;6785;57.918;12.530;2024-02-26T05:40:08;2.90;99.90
13426;DHT22;6785;57.918;12.530;2024-02-26T05:42:35;2.90;99.90
13426;DHT22;6785;57.918;12.530;2024-02-26T05:45:02;2.80;99.90
13426;DHT22;6785;57.918;12.530;2024-02-26T05:47:32;2.80;99.90
13426;DHT22;6785;57.918;12.530;2024-02-26T05:49:59;2.90;99.90
13426;DHT22;6785;57.918;12.530;2024-02-26T05:52:26;2.90;99.90
13426;DHT22;6785;57.918;12.530;2024-02-26T05:54:53;2.90;99.90
13426;DHT22;6785;57.918;12.530;2024-02-26T05:57:20;3.00;99.90
13426;DHT22;6785;57.918;12.530;2024-02-26T05:59:47;3.00;99.90
13426;DHT22;6785;57.918;12.530;2024-02-26T06:02:13;3.00;99.90
13426;DHT22;6785;57.918;12.530;2024-02-26T06:04:42;3.00;99.90
13426;DHT22;6785;57.918;12.530;2024-02-26T06:07:09;3.00;99.90
13426;DHT22;6785;57.918;12.530;2024-02-26T06:09:36;3.00;99.90
13426;DHT22;6785;57.918;12.530;2024-02-26T06:12:03;2.90;99.90
13426;DHT22;6785;57.918;12.530;2024-02-26T06:14:30;2.90;99.90
13426;DHT22;6785;57.918;12.530;2024-02-26T06:16:56;2.90;99.90
13426;DHT22;6785;57.918;12.530;2024-02-26T06:19:24;2.90;99.90
13426;DHT22;6785;57.918;12.530;2024-02-26T06:21:52;2.90;99.90
13426;DHT22;6785;57.918;12.530;2024-02-26T06:24:19;2.90;99.90
13426;DHT22;6785;57.918;12.530;2024-02-26T06:26:47;2.80;99.90
13426;DHT22;6785;57.918;12.530;2024-02-26T06:29:15;2.80;99.90
13426;DHT22;6785;57.918;12.530;2024-02-26T06:31:42;2.90;99.90
13426;DHT22;6785;57.918;12.530;2024-02-26T06:34:09;2.90;99.90
13426;DHT22;6785;57.918;12.530;2024-02-26T06:36:37;2.90;99.90
13426;DHT22;6785;57.918;12.530;2024-02-26T06:39:05;2.80;99.90
13426;DHT22;6785;57.918;12.530;2024-02-26T06:41:32;2.90;99.90
13426;DHT22;6785;57.918;12.530;2024-02-26T06:43:59;2.90;99.90
13426;DHT22;6785;57.918;12.530;2024-02-26T06:46:25;2.90;99.90
13426;DHT22;6785;57.918;12.530;2024-02-26T06:48:54;2.80;99.90
13426;DHT22;6785;57.918;12.530;2024-02-26T06:51:21;2.90;99.90
13426;DHT22;6785;57.918;12.530;2024-02-26T06:53:48;2.90;99.90
13426;DHT22;6785;57.918;12.530;2024-02-26T06:56:17;2.80;99.90
13426;DHT22;6785;57.918;12.530;2024-02-26T06:58:44;2.70;99.90
13426;DHT22;6785;57.918;12.530;2024-02-26T07:01:12;2.70;99.90
13426;DHT22;6785;57.918;12.530;2024-02-26T07:03:40;2.70;99.90
13426;DHT22;6785;57.918;12.530;2024-02-26T07:06:07;2.70;99.90
13426;DHT22;6785;57.918;12.530;2024-02-26T07:08:34;2.70;99.90
13426;DHT22;6785;57.918;12.530;2024-02-26T07:11:02;2.70;99.90
13426;DHT22;6785;57.918;12.530;2024-02-26T07:13:30;2.70;99.90
13426;DHT22;6785;57.918;12.530;2024-02-26T07:15:57;2.70;99.90
13426;DHT22;6785;57.918;12.530;2024-02-26T07:18:24;2.70;99.90
13426;DHT22;6785;57.918;12.530;2024-02-26T07:20:51;2.70;99.90
13426;DHT22;6785;57.918;12.530;2024-02-26T07:23:18;2.70;99.90
13426;DHT22;6785;57.918;12.530;2024-02-26T07:25:44;2.80;99.90
13426;DHT22;6785;57.918;12.530;2024-02-26T07:28:12;2.80;99.90
13426;DHT22;6785;57.918;12.530;2024-02-26T07:30:41;2.90;99.90
13426;DHT22;6785;57.918;12.530;2024-02-26T07:33:08;2.90;99.90
13426;DHT22;6785;57.918;12.530;2024-02-26T07:35:34;3.00;99.90
13426;DHT22;6785;57.918;12.530;2024-02-26T07:38:02;3.00;99.90
13426;DHT22;6785;57.918;12.530;2024-02-26T07:40:29;3.10;99.90
13426;DHT22;6785;57.918;12.530;2024-02-26T07:42:56;3.10;99.90
13426;DHT22;6785;57.918;12.530;2024-02-26T07:45:23;3.10;99.90
13426;DHT22;6785;57.918;12.530;2024-02-26T07:47:51;3.10;99.90
13426;DHT22;6785;57.918;12.530;2024-02-26T07:50:18;3.20;99.90
13426;DHT22;6785;57.918;12.530;2024-02-26T07:52:45;3.20;99.90
13426;DHT22;6785;57.918;12.530;2024-02-26T07:55:12;3.20;99.90
13426;DHT22;6785;57.918;12.530;2024-02-26T07:57:42;3.20;99.90
13426;DHT22;6785;57.918;12.530;2024-02-26T08:00:10;3.20;99.90
13426;DHT22;6785;57.918;12.530;2024-02-26T08:02:37;3.30;99.90
13426;DHT22;6785;57.918;12.530;2024-02-26T08:05:06;3.30;99.90
13426;DHT22;6785;57.918;12.530;2024-02-26T08:07:33;3.30;99.90
13426;DHT22;6785;57.918;12.530;2024-02-26T08:10:00;3.30;99.90
13426;DHT22;6785;57.918;12.530;2024-02-26T08:12:26;3.30;99.90
13426;DHT22;6785;57.918;12.530;2024-02-26T08:14:53;3.30;99.90
13426;DHT22;6785;57.918;12.530;2024-02-26T08:17:21;3.40;99.90
13426;DHT22;6785;57.918;12.530;2024-02-26T08:19:48;3.40;99.90
13426;DHT22;6785;57.918;12.530;2024-02-26T08:22:16;3.30;99.90
13426;DHT22;6785;57.918;12.530;2024-02-26T08:24:43;3.40;99.90
13426;DHT22;6785;57.918;12.530;2024-02-26T08:27:10;3.40;99.90
13426;DHT22;6785;57.918;12.530;2024-02-26T08:29:37;3.40;99.90
13426;DHT22;6785;57.918;12.530;2024-02-26T08:32:04;3.40;99.90
13426;DHT22;6785;57.918;12.530;2024-02-26T08:34:32;3.40;99.90
13426;DHT22;6785;57.918;12.530;2024-02-26T08:36:59;3.50;99.90
13426;DHT22;6785;57.918;12.530;2024-02-26T08:39:27;3.50;99.90
13426;DHT22;6785;57.918;12.530;2024-02-26T08:41:54;3.60;99.90
13426;DHT22;6785;57.918;12.530;2024-02-26T08:44:20;3.60;99.90
13426;DHT22;6785;57.918;12.530;2024-02-26T08:46:47;3.60;99.90
13426;DHT22;6785;57.918;12.530;2024-02-26T08:49:16;3.70;99.90
13426;DHT22;6785;57.918;12.530;2024-02-26T08:51:43;3.70;99.90
13426;DHT22;6785;57.918;12.530;2024-02-26T08:54:11;3.80;99.90
13426;DHT22;6785;57.918;12.530;2024-02-26T08:56:39;3.80;99.90
13426;DHT22;6785;57.918;12.530;2024-02-26T08:59:06;3.90;99.90
13426;DHT22;6785;57.918;12.530;2024-02-26T09:01:33;3.90;99.90
13426;DHT22;6785;57.918;12.530;2024-02-26T09:04:00;3.80;99.90
13426;DHT22;6785;57.918;12.530;2024-02-26T09:06:28;3.80;99.90
13426;DHT22;6785;57.918;12.530;2024-02-26T09:08:55;3.80;99.90
13426;DHT22;6785;57.918;12.530;2024-02-26T09:11:22;3.90;99.90
13426;DHT22;6785;57.918;12.530;2024-02-26T09:13:50;3.90;99.90
13426;DHT22;6785;57.918;12.530;2024-02-26T09:16:17;3.90;99.90
13426;DHT22;6785;57.918;12.530;2024-02-26T09:18:44;3.90;99.90
13426;DHT22;6785;57.918;12.530;2024-02-26T09:21:12;3.80;99.90
13426;DHT22;6785;57.918;12.530;2024-02-26T09:23:39;3.80;99.90
13426;DHT22;6785;57.918;12.530;2024-02-26T09:26:06;3.80;99.90
13426;DHT22;6785;57.918;12.530;2024-02-26T09:28:33;3.90;99.90
13426;DHT22;6785;57.918;12.530;2024-02-26T09:31:04;3.90;99.90
13426;DHT22;6785;57.918;12.530;2024-02-26T09:33:31;4.00;99.90
13426;DHT22;6785;57.918;12.530;2024-02-26T09:35:58;4.10;99.90
13426;DHT22;6785;57.918;12.530;2024-02-26T09:38:26;4.00;99.90
13426;DHT22;6785;57.918;12.530;2024-02-26T09:40:53;4.00;99.90
13426;DHT22;6785;57.918;12.530;2024-02-26T09:43:21;4.10;99.90
13426;DHT22;6785;57.918;12.530;2024-02-26T09:45:50;4.10;99.90
13426;DHT22;6785;57.918;12.530;2024-02-26T09:48:18;4.10;99.90
13426;DHT22;6785;57.918;12.530;2024-02-26T09:50:47;4.20;99.90
13426;DHT22;6785;57.918;12.530;2024-02-26T09:53:14;4.20;99.90
13426;DHT22;6785;57.918;12.530;2024-02-26T09:55:41;4.30;99.90
13426;DHT22;6785;57.918;12.530;2024-02-26T09:58:10;4.30;99.90
13426;DHT22;6785;57.918;12.530;2024-02-26T10:00:44;4.30;99.90
13426;DHT22;6785;57.918;12.530;2024-02-26T10:03:14;4.40;99.90
13426;DHT22;6785;57.918;12.530;2024-02-26T10:05:44;4.30;99.90
13426;DHT22;6785;57.918;12.530;2024-02-26T10:08:12;4.20;99.90
13426;DHT22;6785;57.918;12.530;2024-02-26T10:10:39;4.20;99.90
13426;DHT22;6785;57.918;12.530;2024-02-26T10:13:05;4.20;99.90
13426;DHT22;6785;57.918;12.530;2024-02-26T10:15:36;4.10;99.90
13426;DHT22;6785;57.918;12.530;2024-02-26T10:18:04;4.10;99.90
13426;DHT22;6785;57.918;12.530;2024-02-26T10:20:31;4.10;99.90
13426;DHT22;6785;57.918;12.530;2024-02-26T10:23:02;4.20;99.90
13426;DHT22;6785;57.918;12.530;2024-02-26T10:25:30;4.20;99.90
13426;DHT22;6785;57.918;12.530;2024-02-26T10:28:00;4.10;99.90
13426;DHT22;6785;57.918;12.530;2024-02-26T10:30:28;4.10;99.90
13426;DHT22;6785;57.918;12.530;2024-02-26T10:32:56;4.10;99.90
13426;DHT22;6785;57.918;12.530;2024-02-26T10:35:24;4.10;99.90
13426;DHT22;6785;57.918;12.530;2024-02-26T10:37:51;4.10;99.90
13426;DHT22;6785;57.918;12.530;2024-02-26T10:40:20;4.10;99.90
13426;DHT22;6785;57.918;12.530;2024-02-26T10:42:47;4.10;99.90
13426;DHT22;6785;57.918;12.530;2024-02-26T10:45:14;4.10;99.90
13426;DHT22;6785;57.918;12.530;2024-02-26T10:47:41;4.10;99.90
13426;DHT22;6785;57.918;12.530;2024-02-26T10:50:08;4.20;99.90
13426;DHT22;6785;57.918;12.530;2024-02-26T10:52:37;4.10;99.90
13426;DHT22;6785;57.918;12.530;2024-02-26T10:55:05;4.20;99.90
13426;DHT22;6785;57.918;12.530;2024-02-26T10:57:36;4.30;99.90
13426;DHT22;6785;57.918;12.530;2024-02-26T11:00:06;4.20;99.90
13426;DHT22;6785;57.918;12.530;2024-02-26T11:02:36;4.30;99.90
13426;DHT22;6785;57.918;12.530;2024-02-26T11:05:03;4.40;99.90
13426;DHT22;6785;57.918;12.530;2024-02-26T11:07:30;4.40;99.90
13426;DHT22;6785;57.918;12.530;2024-02-26T11:09:59;4.60;99.90
13426;DHT22;6785;57.918;12.530;2024-02-26T11:12:27;4.70;99.90
13426;DHT22;6785;57.918;12.530;2024-02-26T11:14:56;4.80;99.90
13426;DHT22;6785;57.918;12.530;2024-02-26T11:17:26;4.70;99.90
13426;DHT22;6785;57.918;12.530;2024-02-26T11:19:55;4.90;99.90
13426;DHT22;6785;57.918;12.530;2024-02-26T11:22:23;5.00;99.90
13426;DHT22;6785;57.918;12.530;2024-02-26T11:24:52;4.90;99.90
13426;DHT22;6785;57.918;12.530;2024-02-26T11:27:24;5.00;99.90
13426;DHT22;6785;57.918;12.530;2024-02-26T11:29:58;5.00;99.90
13426;DHT22;6785;57.918;12.530;2024-02-26T11:32:26;4.90;99.90
13426;DHT22;6785;57.918;12.530;2024-02-26T11:34:56;5.00;99.90
13426;DHT22;6785;57.918;12.530;2024-02-26T11:37:23;5.00;99.90
13426;DHT22;6785;57.918;12.530;2024-02-26T11:39:52;5.00;99.90
13426;DHT22;6785;57.918;12.530;2024-02-26T11:42:23;4.80;99.90
13426;DHT22;6785;57.918;12.530;2024-02-26T11:44:50;4.90;99.90
13426;DHT22;6785;57.918;12.530;2024-02-26T11:47:21;4.90;99.90
13426;DHT22;6785;57.918;12.530;2024-02-26T11:49:48;4.70;99.90
13426;DHT22;6785;57.918;12.530;2024-02-26T11:52:16;4.70;99.90
13426;DHT22;6785;57.918;12.530;2024-02-26T11:54:47;4.70;99.90
13426;DHT22;6785;57.918;12.530;2024-02-26T11:57:25;4.70;99.90
13426;DHT22;6785;57.918;12.530;2024-02-26T11:59:53;4.70;99.90
13426;DHT22;6785;57.918;12.530;2024-02-26T12:02:44;4.70;99.90
13426;DHT22;6785;57.918;12.530;2024-02-26T12:05:12;4.70;99.90
13426;DHT22;6785;57.918;12.530;2024-02-26T12:07:43;4.50;99.90
13426;DHT22;6785;57.918;12.530;2024-02-26T12:10:17;4.50;99.90
13426;DHT22;6785;57.918;12.530;2024-02-26T12:12:47;4.50;99.90
13426;DHT22;6785;57.918;12.530;2024-02-26T12:15:15;4.40;99.90
13426;DHT22;6785;57.918;12.530;2024-02-26T12:17:48;4.30;99.90
13426;DHT22;6785;57.918;12.530;2024-02-26T12:20:17;4.30;99.90
13426;DHT22;6785;57.918;12.530;2024-02-26T12:22:46;4.20;99.90
13426;DHT22;6785;57.918;12.530;2024-02-26T12:25:13;4.30;99.90
13426;DHT22;6785;57.918;12.530;2024-02-26T12:27:40;4.20;99.90
13426;DHT22;6785;57.918;12.530;2024-02-26T12:30:08;4.10;99.90
13426;DHT22;6785;57.918;12.530;2024-02-26T12:32:35;4.10;99.90
13426;DHT22;6785;57.918;12.530;2024-02-26T12:35:05;4.20;99.90
13426;DHT22;6785;57.918;12.530;2024-02-26T12:37:32;4.20;99.90
13426;DHT22;6785;57.918;12.530;2024-02-26T12:40:02;4.10;99.90
13426;DHT22;6785;57.918;12.530;2024-02-26T12:42:29;4.30;99.90
13426;DHT22;6785;57.918;12.530;2024-02-26T12:44:58;4.40;99.90
13426;DHT22;6785;57.918;12.530;2024-02-26T12:47:24;4.50;99.90
13426;DHT22;6785;57.918;12.530;2024-02-26T12:49:51;4.60;99.90
13426;DHT22;6785;57.918;12.530;2024-02-26T12:52:20;4.70;99.90
13426;DHT22;6785;57.918;12.530;2024-02-26T12:54:47;4.60;99.90
13426;DHT22;6785;57.918;12.530;2024-02-26T12:57:15;4.70;99.90
13426;DHT22;6785;57.918;12.530;2024-02-26T12:59:43;4.60;99.90
13426;DHT22;6785;57.918;12.530;2024-02-26T13:02:10;4.60;99.90
13426;DHT22;6785;57.918;12.530;2024-02-26T13:04:38;4.70;99.90
13426;DHT22;6785;57.918;12.530;2024-02-26T13:07:06;4.70;99.90
13426;DHT22;6785;57.918;12.530;2024-02-26T13:09:34;4.60;99.90
13426;DHT22;6785;57.918;12.530;2024-02-26T13:12:04;4.60;99.90
13426;DHT22;6785;57.918;12.530;2024-02-26T13:14:31;4.70;99.90
13426;DHT22;6785;57.918;12.530;2024-02-26T13:16:59;4.60;99.90
13426;DHT22;6785;57.918;12.530;2024-02-26T13:19:27;4.50;99.90
13426;DHT22;6785;57.918;12.530;2024-02-26T13:21:54;4.50;99.90
13426;DHT22;6785;57.918;12.530;2024-02-26T13:24:22;4.60;99.90
13426;DHT22;6785;57.918;12.530;2024-02-26T13:26:55;4.60;99.90
13426;DHT22;6785;57.918;12.530;2024-02-26T13:29:22;4.70;99.90
13426;DHT22;6785;57.918;12.530;2024-02-26T13:31:54;4.80;99.90
13426;DHT22;6785;57.918;12.530;2024-02-26T13:34:24;4.70;99.90
13426;DHT22;6785;57.918;12.530;2024-02-26T13:36:52;4.50;99.90
13426;DHT22;6785;57.918;12.530;2024-02-26T13:39:23;4.60;99.90
13426;DHT22;6785;57.918;12.530;2024-02-26T13:41:50;4.40;99.90
13426;DHT22;6785;57.918;12.530;2024-02-26T13:44:19;4.20;99.90
13426;DHT22;6785;57.918;12.530;2024-02-26T13:46:46;4.20;99.90
13426;DHT22;6785;57.918;12.530;2024-02-26T13:49:13;4.20;99.90
13426;DHT22;6785;57.918;12.530;2024-02-26T13:51:40;4.10;99.90
13426;DHT22;6785;57.918;12.530;2024-02-26T13:54:06;4.00;99.90
13426;DHT22;6785;57.918;12.530;2024-02-26T13:56:35;4.00;99.90
13426;DHT22;6785;57.918;12.530;2024-02-26T13:59:02;3.90;99.90
13426;DHT22;6785;57.918;12.530;2024-02-26T14:01:30;3.80;99.90
13426;DHT22;6785;57.918;12.530;2024-02-26T14:03:59;3.90;99.90
13426;DHT22;6785;57.918;12.530;2024-02-26T14:09:08;3.90;99.90
13426;DHT22;6785;57.918;12.530;2024-02-26T14:11:36;4.00;99.90
13426;DHT22;6785;57.918;12.530;2024-02-26T14:14:03;3.90;99.90
13426;DHT22;6785;57.918;12.530;2024-02-26T14:16:31;3.90;99.90
13426;DHT22;6785;57.918;12.530;2024-02-26T14:18:58;3.80;99.90
13426;DHT22;6785;57.918;12.530;2024-02-26T14:21:25;3.90;99.90
13426;DHT22;6785;57.918;12.530;2024-02-26T14:23:52;3.80;99.90
13426;DHT22;6785;57.918;12.530;2024-02-26T14:26:19;3.70;99.90
13426;DHT22;6785;57.918;12.530;2024-02-26T14:28:46;3.80;99.90
13426;DHT22;6785;57.918;12.530;2024-02-26T14:31:16;3.70;99.90
13426;DHT22;6785;57.918;12.530;2024-02-26T14:33:45;3.60;99.90
13426;DHT22;6785;57.918;12.530;2024-02-26T14:36:12;3.70;99.90
13426;DHT22;6785;57.918;12.530;2024-02-26T14:38:38;3.70;99.90
13426;DHT22;6785;57.918;12.530;2024-02-26T14:41:06;3.70;99.90
13426;DHT22;6785;57.918;12.530;2024-02-26T14:43:33;3.70;99.90
13426;DHT22;6785;57.918;12.530;2024-02-26T14:46:00;3.80;99.90
13426;DHT22;6785;57.918;12.530;2024-02-26T14:48:27;3.80;99.90
13426;DHT22;6785;57.918;12.530;2024-02-26T14:50:56;3.70;99.90
13426;DHT22;6785;57.918;12.530;2024-02-26T14:53:24;3.80;99.90
13426;DHT22;6785;57.918;12.530;2024-02-26T14:55:51;3.80;99.90
13426;DHT22;6785;57.918;12.530;2024-02-26T14:58:18;3.70;99.90
13426;DHT22;6785;57.918;12.530;2024-02-26T15:00:45;3.70;99.90
13426;DHT22;6785;57.918;12.530;2024-02-26T15:03:11;3.70;99.90
13426;DHT22;6785;57.918;12.530;2024-02-26T15:05:38;3.60;99.90
13426;DHT22;6785;57.918;12.530;2024-02-26T15:08:07;3.60;99.90
13426;DHT22;6785;57.918;12.530;2024-02-26T15:10:40;3.70;99.90
13426;DHT22;6785;57.918;12.530;2024-02-26T15:13:12;3.70;99.90
13426;DHT22;6785;57.918;12.530;2024-02-26T15:15:39;3.70;99.90
13426;DHT22;6785;57.918;12.530;2024-02-26T15:18:06;3.80;99.90
13426;DHT22;6785;57.918;12.530;2024-02-26T15:20:34;3.80;99.90
13426;DHT22;6785;57.918;12.530;2024-02-26T15:23:01;3.60;99.90
13426;DHT22;6785;57.918;12.530;2024-02-26T15:25:29;3.70;99.90
13426;DHT22;6785;57.918;12.530;2024-02-26T15:27:56;3.60;99.90
13426;DHT22;6785;57.918;12.530;2024-02-26T15:30:23;3.50;99.90
13426;DHT22;6785;57.918;12.530;2024-02-26T15:32:53;3.40;99.90
13426;DHT22;6785;57.918;12.530;2024-02-26T15:35:19;3.40;99.90
13426;DHT22;6785;57.918;12.530;2024-02-26T15:37:46;3.30;99.90
13426;DHT22;6785;57.918;12.530;2024-02-26T15:40:13;3.30;99.90
13426;DHT22;6785;57.918;12.530;2024-02-26T15:42:42;3.30;99.90
13426;DHT22;6785;57.918;12.530;2024-02-26T15:45:09;3.30;99.90
13426;DHT22;6785;57.918;12.530;2024-02-26T15:47:36;3.30;99.90
13426;DHT22;6785;57.918;12.530;2024-02-26T15:50:04;3.30;99.90